KC9SDK Weather Reports


time (UTC)temp
C
wind
direction
speed
KPH
gust
KPH
rain 1hr
cm
rain 24hr
cm
rain mn
cm
humidity
%
barometer
mb
20260906151547 22 148 0.0 1.6 0.00 0.00 0.00 90 1021.7
20260906150042 21 175 0.0 0.0 0.00 0.00 0.00 92 1021.5
20260906144538 20 135 0.0 0.0 0.00 0.00 0.00 95 1021.5
20260906143037 20 75 0.0 0.0 0.00 0.00 0.00 98 1021.4
20260906143006 20 76 0.0 0.0 0.00 0.00 0.00 98 1021.4
20260906141533 19 37 0.0 0.0 0.00 0.00 0.00 99 1021.5
20260906140032 18 64 0.0 0.0 0.00 0.00 0.00 100 1021.7
20260906134531 18 65 0.0 0.0 0.00 0.00 0.00 100 1021.6
20260906133036 17 26 0.0 0.0 0.00 0.00 0.00 100 1021.6
20260906131530 17 124 0.0 0.0 0.00 0.00 0.00 100 1021.5
20260906130030 17 124 0.0 0.0 0.00 0.00 0.00 100 1021.6
20260906124528 16 124 0.0 0.0 0.00 0.00 0.00 100 1021.6
20260906123033 16 124 0.0 0.0 0.00 0.00 0.00 99 1021.4
20260906121529 16 124 0.0 0.0 0.00 0.00 0.00 99 1021.1
20260906120024 16 124 0.0 0.0 0.00 0.00 0.00 99 1021.0
20260906114536 16 124 0.0 0.0 0.00 0.00 0.00 99 1021.1
20260906113026 16 124 0.0 0.0 0.00 0.00 0.00 99 1021.0
20260906111527 16 124 0.0 0.0 0.00 0.00 0.00 99 1021.0
20260906110018 16 124 0.0 0.0 0.00 0.00 0.00 99 1020.4
20260906104518 16 124 0.0 0.0 0.00 0.00 0.00 99 1019.8
20260906103014 16 124 0.0 0.0 0.00 0.00 0.00 99 1019.8
20260906101514 16 124 0.0 0.0 0.00 0.00 0.00 99 1020.0
20260906100017 16 124 0.0 0.0 0.00 0.00 0.00 99 1019.8
20260906094512 16 124 0.0 0.0 0.00 0.00 0.00 98 1019.9
20260906093011 16 124 0.0 0.0 0.00 0.00 0.00 98 1019.9
20260906091515 17 124 0.0 0.0 0.00 0.00 0.00 98 1019.9
20260906090008 17 124 0.0 0.0 0.00 0.00 0.00 99 1019.8
20260906084506 17 124 0.0 0.0 0.00 0.00 0.00 98 1019.9
20260906083006 17 124 0.0 0.0 0.00 0.00 0.00 98 1019.8
20260906081505 17 124 0.0 0.0 0.00 0.00 0.00 98 1019.8
20260906080005 17 125 0.0 0.0 0.00 0.00 0.00 98 1019.7
20260906074503 17 125 0.0 0.0 0.00 0.00 0.00 97 1019.6
20260906073003 17 124 0.0 0.0 0.00 0.00 0.00 97 1019.8
20260906071611 17 124 0.0 0.0 0.00 0.00 0.00 97 1019.7
20260906070057 17 124 0.0 0.0 0.00 0.00 0.00 97 1019.9
20260906064556 18 124 0.0 0.0 0.00 0.00 0.00 97 1019.8
20260906063054 18 115 0.0 0.0 0.00 0.00 0.00 97 1019.8
20260906061552 18 191 0.0 0.0 0.00 0.00 0.00 97 1019.7
20260906060122 18 191 0.0 0.0 0.00 0.00 0.00 96 1019.7
20260906054548 19 70 0.0 0.0 0.00 0.00 0.00 96 1019.7
20260906053046 19 71 0.0 0.0 0.00 0.00 0.00 96 1019.6
20260906051545 20 71 0.0 0.0 0.00 0.00 0.00 96 1019.5
20260906050043 20 70 0.0 0.0 0.00 0.00 0.00 95 1019.6
20260906044540 20 69 0.0 0.0 0.00 0.00 0.00 94 1019.8
20260906043040 20 70 0.0 0.0 0.00 0.00 0.00 94 1019.5
20260906041536 21 70 0.0 0.0 0.00 0.00 0.00 94 1019.4
20260906040037 21 109 0.0 1.6 0.00 0.00 0.00 94 1019.3
20260906034535 21 148 0.0 6.4 0.00 0.00 0.00 94 1019.0
20260906033028 21 123 0.0 0.0 0.00 0.00 0.00 95 1018.7
20260906031548 21 125 0.0 0.0 0.00 0.00 0.00 94 1018.8
20260906030026 21 103 0.0 0.0 0.00 0.00 0.00 94 1018.6
20260906024527 21 162 0.0 0.0 0.00 0.00 0.00 94 1018.5
20260906023021 22 56 0.0 0.0 0.00 0.00 0.00 94 1018.3
20260906021522 22 44 0.0 0.0 0.00 0.00 0.00 93 1018.1
20260906020021 22 84 0.0 0.0 0.00 0.00 0.00 93 1017.9
20260906014525 22 40 0.0 1.6 0.00 0.00 0.00 92 1017.7
20260906013019 22 40 0.0 0.0 0.00 0.00 0.00 92 1017.5
20260906011518 22 41 0.0 9.7 0.00 0.00 0.00 92 1017.3
20260906010018 22 57 0.0 1.6 0.00 0.00 0.00 91 1017.3
20260906004517 23 112 0.0 3.2 0.00 0.00 0.00 90 1017.2
20260906003016 23 59 0.0 0.0 0.00 0.00 0.00 89 1017.3
20260906001515 23 49 0.0 4.8 0.00 0.00 0.00 89 1017.5
20260906000015 24 37 0.0 1.6 0.00 0.00 0.00 88 1017.6
20260905234514 24 47 0.0 4.8 0.00 0.00 0.00 88 1017.5
20260905233017 24 34 0.0 0.0 0.00 0.00 0.00 87 1017.3
20260905231514 25 20 0.0 4.8 0.00 0.00 0.00 86 1017.3
20260905230013 25 9 0.0 0.0 0.00 0.00 0.00 84 1017.3
20260905224512 25 348 0.0 0.0 0.00 0.00 0.00 83 1017.5
20260905223011 25 18 0.0 8.0 0.00 0.00 0.00 82 1017.5
20260905221510 26 17 1.6 16.1 0.00 0.00 0.00 81 1017.4
20260905220013 26 349 0.0 14.5 0.00 0.00 0.00 80 1017.3
20260905214509 26 340 0.0 16.1 0.00 0.00 0.00 79 1017.2
20260905213010 26 56 1.6 14.5 0.00 0.00 0.00 77 1017.0
20260905211508 26 12 4.8 20.9 0.00 0.00 0.00 78 1017.4
20260905210007 26 34 1.6 14.5 0.00 0.00 0.00 80 1017.4
20260905204504 26 5 0.0 12.9 0.00 0.00 0.00 83 1017.5
20260905203004 26 30 0.0 16.1 0.00 0.00 0.00 83 1017.4
20260905201502 26 14 0.0 6.4 0.00 0.00 0.00 85 1017.5
20260905200129 26 10 3.2 14.5 0.00 0.00 0.00 84 1017.3
20260905194601 26 70 4.8 22.5 0.00 0.00 0.00 85 1017.2
20260905193059 26 9 9.7 22.5 0.00 0.00 0.00 83 1017.3
20260905191558 26 46 0.0 17.7 0.00 0.00 0.00 84 1017.3
20260905190057 25 355 0.0 0.0 0.00 0.00 0.00 86 1017.3
20260905184552 25 13 0.0 0.0 0.00 0.00 0.00 89 1017.5
20260905183048 24 18 0.0 0.0 0.00 0.00 0.00 89 1017.6
20260905181548 24 348 0.0 0.0 0.00 0.00 0.00 90 1017.9
20260905180100 23 336 0.0 0.0 0.00 0.00 0.00 92 1017.8
20260905174539 23 37 0.0 0.0 0.00 0.00 0.00 93 1017.8
20260905173046 23 51 1.6 9.7 0.00 0.00 0.00 93 1018.1
20260905171547 22 56 1.6 4.8 0.00 0.00 0.00 94 1018.1
20260905170028 22 17 0.0 9.7 0.00 0.00 0.00 95 1018.1
20260905164526 22 34 0.0 0.0 0.00 0.00 0.00 95 1018.2
20260905163022 22 65 0.0 0.0 0.00 0.00 0.00 96 1018.3
20260905161524 22 5 0.0 11.3 0.00 0.00 0.00 96 1018.2
20260905160013 22 23 0.0 1.6 0.00 0.00 0.00 97 1018.0
20260905154509 22 68 1.6 8.0 0.00 0.00 0.00 98 1017.9
20260905153008 22 24 1.6 12.9 0.00 0.00 0.00 99 1018.0